CDT,Max TemperatureF,Mean TemperatureF,Min TemperatureF,Max Dew PointF,MeanDew PointF,Min DewpointF,Max Humidity, Mean Humidity, Min Humidity, Max Sea Level PressureIn, Mean Sea Level PressureIn, Min Sea Level PressureIn, Max VisibilityMiles, Mean VisibilityMiles, Min VisibilityMiles, Max Wind SpeedMPH, Mean Wind SpeedMPH, Max Gust SpeedMPH,PrecipitationIn, CloudCover, Events, WindDirDegrees
2014-3-1,57,50,43,37,36,30,70,59,47,30.16,30.11,30.06,10,10,9,14,3,16,0.00,8,,67
2014-3-2,44,30,16,31,23,10,92,79,65,30.24,30.17,30.07,8,3,1,28,16,35,1.34,8,Rain-Snow-Thunderstorm,9
2014-3-3,25,19,13,14,9,7,84,72,60,30.42,30.35,30.18,10,7,0,25,12,32,0.23,5,Snow,12
2014-3-4,37,23,8,28,17,7,92,66,40,30.35,30.24,30.17,10,8,2,10,4,14,T,2,,102
2014-3-5,37,33,28,31,29,26,92,87,82,30.25,30.21,30.16,10,5,1,14,5,17,0.00,7,,78
2014-3-6,48,37,26,28,25,21,92,69,45,30.23,30.15,30.06,10,9,6,13,6,21,0.00,0,,44
2014-3-7,53,39,25,33,28,22,92,68,44,30.08,30.04,29.99,10,7,2,8,3,11,0.00,0,,237
2014-3-8,53,42,31,43,37,28,86,76,66,30.27,30.14,30.03,8,4,2,15,7,19,T,5,,292
2014-3-9,51,41,31,35,31,26,85,69,52,30.35,30.24,30.11,10,8,5,15,6,19,0.00,1,,339
2014-3-10,66,51,35,46,40,33,92,63,34,30.11,29.96,29.81,10,7,2,23,10,29,0.00,0,,225
2014-3-11,75,61,46,55,49,43,86,65,44,29.80,29.68,29.50,10,9,6,17,9,22,0.00,1,,212
2014-3-12,66,50,33,58,35,21,86,63,40,30.15,29.82,29.43,10,10,10,32,16,45,T,6,Rain,320
2014-3-13,57,42,26,31,27,21,81,55,31,30.26,30.16,30.06,10,10,9,13,5,22,0.00,0,,180
2014-3-14,63,55,46,38,33,30,59,48,36,30.05,30.00,29.91,10,10,10,31,15,43,0.00,0,,213
2014-3-15,72,52,32,44,35,27,92,56,20,30.08,30.02,29.90,10,7,0,14,5,20,0.00,1,Fog,157
2014-3-16,57,45,33,45,35,25,89,72,55,29.96,29.86,29.79,10,7,2,28,16,35,0.92,8,Rain,42
2014-3-17,48,39,30,33,27,21,89,74,58,29.94,29.88,29.82,10,10,10,20,8,25,0.00,5,,41
2014-3-18,60,45,30,43,37,28,92,73,53,29.92,29.83,29.71,10,9,3,24,9,31,0.00,2,,157
2014-3-19,61,48,34,46,40,33,79,60,40,30.16,29.92,29.76,10,10,10,24,11,30,T,4,,245
2014-3-20,64,47,29,36,29,26,92,58,24,30.20,30.13,30.04,10,7,2,16,5,20,0.00,0,,216
2014-3-21,71,58,45,37,32,28,49,36,23,30.04,29.96,29.88,10,10,10,21,9,28,0.00,0,,206
2014-3-22,59,51,43,41,33,29,65,49,33,30.22,30.10,29.90,10,10,10,22,12,28,0.00,1,,1
2014-3-23,49,40,31,30,22,16,64,48,31,30.37,30.32,30.23,10,10,9,22,12,31,0.00,1,,7
2014-3-24,50,38,26,25,17,14,69,46,22,30.36,30.26,30.14,10,10,10,15,7,19,0.00,3,,32
2014-3-25,45,36,26,31,23,12,89,59,29,30.31,30.18,30.10,10,7,2,22,10,31,0.01,6,Snow,320
2014-3-26,51,37,22,23,16,13,77,50,22,30.41,30.29,30.13,10,10,10,15,5,20,0.00,0,,153
2014-3-27,69,57,45,50,36,19,83,57,31,30.10,29.90,29.77,10,10,6,25,16,36,0.09,8,Rain-Thunderstorm,173
2014-3-28,71,60,48,57,50,44,90,67,44,30.02,29.90,29.77,10,9,2,22,11,31,0.72,7,Rain-Thunderstorm,289
2014-3-29,48,43,38,46,40,32,92,79,65,30.27,30.07,29.94,9,5,2,21,12,28,0.34,8,Rain,353
2014-3-30,61,46,30,36,32,27,96,64,32,30.32,30.23,30.13,10,6,1,10,2,13,0.00,0,,254
2014-3-31,73,55,36,42,36,32,85,55,25,30.13,30.04,29.89,10,10,10,20,9,25,T,2,,181